Meteorología y climatología de Navarra
Datos de la estación - Meteo Navarra

Estación de Bera (Larrategaña) GN

Altitud 306 m.


Datos desde el 26/03/2020 hasta el 27/03/2020 en horario solar
Los datos son PROVISIONALES

Anterior Página 1 de 1 Siguiente Descargar: Formato para Excel 2000 o superior   Formato csv   Formato para OpenOffice Calc
Fecha Temperatura Humedad relativa Radiación global Insolación Precipitación Vel. viento 10 m Vel. viento 10 m Dir. viento 10 m
ºC % W/m² s l/m² m/s km/h º
26/03/2020 0:00 7.6 77 0.0 0 0.0 2.2 7.8 230
26/03/2020 0:10 7.7 78 0.0 0 0.0 2.4 8.5 228
26/03/2020 0:20 7.5 78 0.0 0 0.0 2.3 8.4 230
26/03/2020 0:30 7.6 78 0.0 0 0.0 2.2 8.0 232
26/03/2020 0:40 7.6 79 0.0 0 0.0 2.5 8.8 228
26/03/2020 0:50 7.6 80 0.0 0 0.0 2.4 8.7 232
26/03/2020 1:00 7.7 80 0.0 0 0.0 1.9 6.7 226
26/03/2020 1:10 7.7 81 0.0 0 0.0 1.6 5.8 215
26/03/2020 1:20 7.8 81 0.0 0 0.0 1.4 5.1 190
26/03/2020 1:30 8.1 81 0.0 0 0.0 1.2 4.4 190
26/03/2020 1:40 8.0 81 0.0 0 0.0 0.5 1.8 251
26/03/2020 1:50 8.2 80 0.0 0 0.0 0.7 2.3 232
26/03/2020 2:00 8.3 82 0.0 0 0.0 1.2 4.4 3
26/03/2020 2:10 8.4 81 0.0 0 0.0 1.6 5.8 329
26/03/2020 2:20 8.3 78 0.0 0 0.0 2.0 7.1 7
26/03/2020 2:30 8.6 75 0.0 0 0.0 2.1 7.4 10
26/03/2020 2:40 8.4 77 0.0 0 0.0 2.3 8.3 34
26/03/2020 2:50 8.5 75 0.0 0 0.0 2.6 9.5 27
26/03/2020 3:00 8.6 74 0.0 0 0.0 2.3 8.2 17
26/03/2020 3:10 8.7 73 0.0 0 0.0 2.6 9.2 9
26/03/2020 3:20 8.7 73 0.0 0 0.0 2.5 8.8 20
26/03/2020 3:30 8.7 73 0.0 0 0.0 2.6 9.4 17
26/03/2020 3:40 8.7 71 0.0 0 0.0 2.8 10.2 14
26/03/2020 3:50 8.7 72 0.0 0 0.0 2.7 9.8 11
26/03/2020 4:00 8.7 72 0.0 0 0.0 3.2 11.4 6
26/03/2020 4:10 8.7 70 0.0 0 0.0 3.0 10.9 7
26/03/2020 4:20 8.8 66 0.0 0 0.0 3.2 11.6 8
26/03/2020 4:30 8.8 64 0.0 0 0.0 3.8 13.7 11
26/03/2020 4:40 8.8 63 0.0 0 0.0 3.8 13.6 2
26/03/2020 4:50 8.8 63 0.0 0 0.0 4.1 14.8 4
26/03/2020 5:00 8.8 63 0.0 0 0.0 3.8 13.7 9
26/03/2020 5:10 8.6 63 0.0 0 0.0 3.8 13.6 11
26/03/2020 5:20 8.6 64 0.0 0 0.0 3.4 12.2 1
26/03/2020 5:30 8.6 63 0.0 0 0.0 4.1 14.6 12
26/03/2020 5:40 8.4 61 0.0 0 0.0 3.9 13.9 16
26/03/2020 5:50 8.3 59 0.0 0 0.0 4.5 16.2 11
26/03/2020 6:00 8.2 59 0.0 0 0.0 4.3 15.3 10
26/03/2020 6:10 8.2 60 0.0 0 0.0 4.2 14.9 11
26/03/2020 6:20 8.0 61 0.0 0 0.0 4.5 16.3 20
26/03/2020 6:30 8.0 62 3.0 0 0.0 4.0 14.3 23
26/03/2020 6:40 8.0 62 23.9 0 0.0 3.3 12.0 20
26/03/2020 6:50 8.1 61 39.7 0 0.0 3.7 13.2 19
26/03/2020 7:00 8.2 60 62.2 90 0.0 3.5 12.7 15
26/03/2020 7:10 8.3 59 90.8 0 0.0 4.0 14.3 11
26/03/2020 7:20 8.3 59 73.8 0 0.0 4.2 14.9 18
26/03/2020 7:30 8.2 61 103.4 0 0.0 4.2 15.1 16
26/03/2020 7:40 8.1 67 80.5 0 0.0 5.4 19.5 22
26/03/2020 7:50 7.7 68 112.1 0 0.0 6.0 21.5 34
26/03/2020 8:00 7.6 66 146.6 40 0.0 5.6 20.1 33
26/03/2020 8:10 7.4 64 192.4 164 0.0 5.9 21.3 38
26/03/2020 8:20 7.6 61 392.5 548 0.0 6.5 23.5 43
26/03/2020 8:30 7.7 59 393.9 464 0.0 6.2 22.3 35
26/03/2020 8:40 8.2 58 445.7 600 0.0 5.3 19.0 28
26/03/2020 8:50 8.1 57 369.5 448 0.0 6.0 21.5 34
26/03/2020 9:00 8.4 57 494.8 564 0.0 4.3 15.3 30
26/03/2020 9:10 8.7 56 500.8 502 0.0 5.1 18.3 29
26/03/2020 9:20 8.6 58 530.6 508 0.0 4.9 17.7 31
26/03/2020 9:30 8.4 58 400.1 310 0.0 5.8 20.9 26
26/03/2020 9:40 8.2 60 370.3 210 0.0 4.2 15.0 21
26/03/2020 9:50 8.0 56 324.1 154 0.0 4.5 16.0 13
26/03/2020 10:00 8.1 49 691.6 586 0.0 6.1 22.1 30
26/03/2020 10:10 8.8 45 729.2 600 0.0 5.4 19.6 27
26/03/2020 10:20 8.6 42 658.3 524 0.0 4.7 17.0 23
26/03/2020 10:30 8.8 41 737.7 600 0.0 4.8 17.4 26
26/03/2020 10:40 9.0 40 757.5 600 0.0 3.5 12.5 18
26/03/2020 10:50 9.2 40 778.2 600 0.0 2.8 10.2 13
26/03/2020 11:00 9.2 41 793.0 600 0.0 4.0 14.5 6
26/03/2020 11:10 9.2 43 814.0 600 0.0 3.7 13.4 13
26/03/2020 11:20 9.4 41 826.0 600 0.0 4.2 15.2 10
26/03/2020 11:30 9.1 40 834.0 600 0.0 3.6 12.9 13
26/03/2020 11:40 9.2 39 840.0 600 0.0 5.2 18.8 18
26/03/2020 11:50 9.2 43 845.0 600 0.0 3.1 11.1 350
26/03/2020 12:00 9.4 41 839.0 600 0.0 3.3 11.7 334
26/03/2020 12:10 9.5 39 848.0 600 0.0 3.6 12.8 16
26/03/2020 12:20 9.6 38 841.0 600 0.0 3.1 11.0 16
26/03/2020 12:30 9.7 37 843.0 600 0.0 3.2 11.5 359
26/03/2020 12:40 9.1 36 837.0 600 0.0 4.1 14.8 345
26/03/2020 12:50 9.6 37 831.0 600 0.0 2.9 10.6 4
26/03/2020 13:00 9.7 37 827.0 600 0.0 3.4 12.2 357
26/03/2020 13:10 9.7 41 787.6 590 0.0 3.4 12.1 357
26/03/2020 13:20 9.5 41 804.0 600 0.0 3.8 13.8 351
26/03/2020 13:30 9.3 42 794.1 600 0.0 3.5 12.5 340
26/03/2020 13:40 9.3 40 791.0 600 0.0 3.6 13.1 301
26/03/2020 13:50 9.5 42 773.7 600 0.0 3.1 11.2 329
26/03/2020 14:00 9.6 43 752.8 600 0.0 3.1 11.3 331
26/03/2020 14:10 9.9 43 760.7 600 0.0 2.7 9.6 333
26/03/2020 14:20 9.9 44 747.2 600 0.0 2.5 9.0 320
26/03/2020 14:30 10.0 44 711.6 600 0.0 3.1 11.3 327
26/03/2020 14:40 9.5 44 707.0 600 0.0 3.4 12.1 333
26/03/2020 14:50 9.4 45 693.6 600 0.0 3.5 12.5 317
26/03/2020 15:00 9.3 45 632.6 600 0.0 3.7 13.2 312
26/03/2020 15:10 9.2 46 621.2 590 0.0 3.4 12.1 325
26/03/2020 15:20 9.3 47 596.4 598 0.0 3.3 11.7 341
26/03/2020 15:30 9.6 48 494.1 496 0.0 2.9 10.3 344
26/03/2020 15:40 8.9 48 388.5 366 0.0 3.5 12.5 309
26/03/2020 15:50 8.3 50 236.1 86 0.0 3.0 10.8 321
26/03/2020 16:00 8.4 50 273.9 252 0.0 2.7 9.6 329
26/03/2020 16:10 8.1 51 174.2 54 0.0 2.4 8.6 359
26/03/2020 16:20 7.9 51 136.1 0 0.0 2.6 9.2 7
26/03/2020 16:30 7.9 52 187.4 154 0.0 2.3 8.1 13
26/03/2020 16:40 7.9 53 126.1 0 0.0 2.4 8.5 13
26/03/2020 16:50 7.6 53 98.4 0 0.0 2.5 9.0 29
26/03/2020 17:00 7.5 53 141.9 266 0.0 2.2 8.0 1
26/03/2020 17:10 7.5 54 164.9 456 0.0 1.8 6.4 16
26/03/2020 17:20 7.6 53 122.6 346 0.0 1.6 5.8 3
26/03/2020 17:30 7.3 55 56.2 8 0.0 2.0 7.2 22
26/03/2020 17:40 7.2 56 78.9 426 0.0 0.7 2.7 341
26/03/2020 17:50 7.1 55 65.7 442 0.0 2.0 7.0 2
26/03/2020 18:00 6.8 57 26.0 0 0.0 1.0 3.5 353
26/03/2020 18:10 6.5 58 10.4 0 0.0 0.8 3.0 325
26/03/2020 18:20 6.3 58 0.0 0 0.0 1.0 3.5 307
26/03/2020 18:30 6.1 58 0.0 0 0.0 1.2 4.1 304
26/03/2020 18:40 6.0 59 0.0 0 0.0 1.0 3.7 304
26/03/2020 18:50 6.1 59 0.0 0 0.0 1.2 4.4 300
26/03/2020 19:00 6.0 59 0.0 0 0.0 0.8 3.0 284
26/03/2020 19:10 5.8 59 0.0 0 0.0 0.4 1.5 299
26/03/2020 19:20 5.7 60 0.0 0 0.0 0.7 2.6 154
26/03/2020 19:30 5.7 60 0.0 0 0.0 0.4 1.3 179
26/03/2020 19:40 6.0 59 0.0 0 0.0 1.1 4.0 234
26/03/2020 19:50 5.7 60 0.0 0 0.0 1.4 5.2 238
26/03/2020 20:00 5.5 62 0.0 0 0.0 1.2 4.4 228
26/03/2020 20:10 5.4 62 0.0 0 0.0 1.4 5.0 242
26/03/2020 20:20 5.6 60 0.0 0 0.0 1.3 4.6 231
26/03/2020 20:30 5.6 60 0.0 0 0.0 0.9 3.3 226
26/03/2020 20:40 5.5 61 0.0 0 0.0 0.9 3.2 220
26/03/2020 20:50 5.5 61 0.0 0 0.0 0.7 2.6 243
26/03/2020 21:00 5.7 61 0.0 0 0.0 1.3 4.5 170
26/03/2020 21:10 5.6 62 0.0 0 0.0 0.9 3.3 259
26/03/2020 21:20 5.6 61 0.0 0 0.0 1.0 3.5 242
26/03/2020 21:30 5.6 61 0.0 0 0.0 1.0 3.6 222
26/03/2020 21:40 5.4 63 0.0 0 0.0 1.3 4.8 213
26/03/2020 21:50 5.0 65 0.0 0 0.0 1.5 5.4 233
26/03/2020 22:00 5.0 64 0.0 0 0.0 1.4 4.9 236
26/03/2020 22:10 4.9 65 0.0 0 0.0 1.4 5.1 226
26/03/2020 22:20 4.7 67 0.0 0 0.0 1.5 5.4 232
26/03/2020 22:30 4.7 67 0.0 0 0.0 1.1 4.1 231
26/03/2020 22:40 4.6 67 0.0 0 0.0 1.4 5.0 227
26/03/2020 22:50 4.2 71 0.0 0 0.0 1.7 6.3 231
26/03/2020 23:00 3.9 72 0.0 0 0.0 1.7 6.1 234
26/03/2020 23:10 3.7 73 0.0 0 0.0 2.3 8.1 235
26/03/2020 23:20 3.6 74 0.0 0 0.0 2.0 7.3 236
26/03/2020 23:30 3.5 75 0.0 0 0.0 2.0 7.2 232
26/03/2020 23:40 3.5 75 0.0 0 0.0 2.4 8.7 233
26/03/2020 23:50 3.3 75 0.0 0 0.0 2.3 8.3 236
Anterior Página 1 de 1 Siguiente

NOTA: Tipo de datos según el color:
   - Valores diarios o 10 minutos correctos
   - Valores diarios calculados a partir de un número de datos 10 minutos menor que 144 y mayor que 120, o de un número de datos semihorarios menor que 48 y mayor que 40 (caso de las estaciones de INTIA y del Ministerio)
   - Valores diez minutos estimados


Contacto        Enlaces        Aviso legal